Sign in

Goboko Update

On the 31st December 2018 and 1st January 2019 we'll be migrating to a new Goboko platform and booking operations will not be possible

The new iPhone app will be available in March 2019

In the meantime, mobile device users can continue to use Goboko through a browser

Info

Aviation weather

METAR KDAB 120753Z 33004KT 10SM CLR 04/04 A3029 RMK AO2 SLP256 T00440044 $

TAF KDAB 120539Z 1206/1306 VRB03KT P6SM SKC FM122300 00000KT P6SM SCT250

Aviation weather from ADDS. Re-check weather before flight.

-